createdAt,value
2018-08-23T00:01:54.487Z,99900.42
2018-08-23T00:04:25.500Z,99901.41
2018-08-23T00:07:00.456Z,99906.12
2018-08-23T00:09:35.713Z,99905.29
2018-08-23T00:12:06.574Z,99898.09
2018-08-23T00:14:37.505Z,99902.73
2018-08-23T00:17:08.592Z,99900.88
2018-08-23T00:19:39.499Z,99901.39
2018-08-23T00:22:14.374Z,99902.31
2018-08-23T00:24:45.386Z,99904.14
2018-08-23T00:27:20.352Z,99906.38
2018-08-23T00:29:51.633Z,99907.56
2018-08-23T00:32:22.501Z,99907.92
2018-08-23T00:34:53.730Z,99906.73
2018-08-23T00:37:24.557Z,99904.41
2018-08-23T00:39:57.329Z,99905.11
2018-08-23T00:42:28.386Z,99907.56
2018-08-23T00:47:47.435Z,99909.41
2018-08-23T00:50:54.506Z,99911.34
2018-08-23T00:53:25.607Z,99905.24
2018-08-23T00:56:19.778Z,99913.57
2018-08-23T00:59:08.388Z,99908.91
2018-08-23T01:01:39.502Z,99907.53
2018-08-23T01:04:10.489Z,99910.23
2018-08-23T01:06:44.708Z,99913.45
2018-08-23T01:09:15.594Z,99906.34
2018-08-23T01:11:48.412Z,99903.52
2018-08-23T01:14:19.714Z,99904.48
2018-08-23T01:17:17.289Z,99906.84
2018-08-23T01:19:58.074Z,99903.73
2018-08-23T01:22:29.395Z,99901.55
2018-08-23T01:25:02.525Z,99898.69
2018-08-23T01:27:38.657Z,99897.28
2018-08-23T01:30:09.593Z,99896.72
2018-08-23T01:32:40.493Z,99893.53
2018-08-23T01:35:12.520Z,99889.16
2018-08-23T01:37:43.778Z,99890.89
2018-08-23T01:40:14.541Z,99886.62
2018-08-23T01:42:45.513Z,99892.28
2018-08-23T01:45:16.501Z,99891.52
2018-08-23T01:47:57.369Z,99883.65
2018-08-23T01:50:28.489Z,99878.40
2018-08-23T01:52:59.505Z,99884.13
2018-08-23T01:55:30.461Z,99882.30
2018-08-23T01:58:01.482Z,99885.83
2018-08-23T02:00:34.600Z,99886.66
2018-08-23T02:03:05.538Z,99891.67
2018-08-23T02:05:38.404Z,99885.85
2018-08-23T02:08:09.490Z,99891.05
2018-08-23T02:10:40.477Z,99884.42
2018-08-23T02:13:16.527Z,99881.91
2018-08-23T02:15:51.592Z,99884.28
2018-08-23T02:18:22.539Z,99891.67
2018-08-23T02:20:57.335Z,99899.97
2018-08-23T02:23:28.385Z,99896.24
2018-08-23T02:25:59.481Z,99891.08
2018-08-23T02:28:30.485Z,99894.80
2018-08-23T02:31:01.488Z,99894.58
2018-08-23T02:33:32.526Z,99890.14
2018-08-23T02:36:23.622Z,99894.48
2018-08-23T02:39:05.543Z,99893.02
2018-08-23T02:41:36.518Z,99886.53
2018-08-23T02:44:07.721Z,99888.79
2018-08-23T02:46:38.553Z,99887.04
2018-08-23T02:49:09.482Z,99891.92
2018-08-23T02:51:45.758Z,99889.15
2018-08-23T02:54:16.553Z,99895.45
2018-08-23T02:56:51.370Z,99895.21
2018-08-23T02:59:22.371Z,99891.59
2018-08-23T03:01:53.384Z,99886.04
2018-08-23T03:04:25.498Z,99887.86
2018-08-23T03:06:58.855Z,99887.14
2018-08-23T03:09:35.793Z,99882.90
2018-08-23T03:12:12.870Z,99883.70
2018-08-23T03:14:43.652Z,99882.77
2018-08-23T03:17:26.233Z,99883.11
2018-08-23T03:20:10.608Z,99885.17
2018-08-23T03:22:42.319Z,99872.53
2018-08-23T03:25:14.430Z,99883.66
2018-08-23T03:27:45.451Z,99876.22
2018-08-23T03:33:42.583Z,99882.09
2018-08-23T03:36:13.484Z,99887.43
2018-08-23T03:38:45.355Z,99885.50
2018-08-23T03:41:16.358Z,99882.81
2018-08-23T03:43:47.377Z,99881.30
2018-08-23T03:46:18.463Z,99880.50
2018-08-23T03:48:59.643Z,99882.53
2018-08-23T03:54:13.488Z,99887.01
2018-08-23T03:59:42.422Z,99882.05
2018-08-23T04:02:14.457Z,99881.88
2018-08-23T04:04:47.770Z,99887.66
2018-08-23T04:07:19.206Z,99879.15
2018-08-23T04:09:50.363Z,99884.05
2018-08-23T04:12:21.412Z,99887.61
2018-08-23T04:14:52.501Z,99885.91
2018-08-23T04:17:23.516Z,99885.11
2018-08-23T04:19:54.483Z,99888.65
2018-08-23T04:22:25.491Z,99880.54
2018-08-23T04:24:57.429Z,99880.45
2018-08-23T04:27:28.506Z,99883.91
2018-08-23T04:29:59.538Z,99876.98
2018-08-23T04:32:35.776Z,99877.61
2018-08-23T04:35:14.656Z,99882.02
2018-08-23T04:37:45.510Z,99881.16
2018-08-23T04:40:16.496Z,99888.50
2018-08-23T04:42:47.495Z,99887.84
2018-08-23T04:45:34.205Z,99886.70
2018-08-23T04:48:07.306Z,99885.38
2018-08-23T04:50:40.394Z,99884.04
2018-08-23T04:53:11.502Z,99887.58
2018-08-23T04:55:42.489Z,99888.98
2018-08-23T04:58:13.498Z,99885.11
2018-08-23T05:00:44.493Z,99884.77
2018-08-23T05:03:15.498Z,99884.60
2018-08-23T05:05:46.477Z,99878.11
2018-08-23T05:11:01.563Z,99877.02
2018-08-23T05:13:32.459Z,99881.30
2018-08-23T05:16:03.503Z,99890.27
2018-08-23T05:18:34.539Z,99889.71
2018-08-23T05:21:05.521Z,99890.47
2018-08-23T05:23:36.500Z,99888.95
2018-08-23T05:26:11.581Z,99888.48
2018-08-23T05:31:32.210Z,99882.80
2018-08-23T05:34:07.712Z,99881.48
2018-08-23T05:36:38.683Z,99885.65
2018-08-23T05:39:10.630Z,99886.34
2018-08-23T05:41:41.547Z,99893.55
2018-08-23T05:44:17.625Z,99890.12
2018-08-23T05:46:53.549Z,99891.14
2018-08-23T05:50:46.377Z,99895.05
2018-08-23T05:53:18.492Z,99892.44
2018-08-23T05:55:52.835Z,99896.96
2018-08-23T05:58:26.836Z,99892.98
2018-08-23T06:00:57.709Z,99895.76
2018-08-23T06:03:28.543Z,99894.20
2018-08-23T06:05:59.561Z,99892.64
2018-08-23T06:08:30.469Z,99892.77
2018-08-23T06:11:10.424Z,99898.05
2018-08-23T06:13:41.600Z,99891.17
2018-08-23T06:16:12.557Z,99895.30
2018-08-23T06:18:43.501Z,99892.81
2018-08-23T06:21:14.466Z,99891.27
2018-08-23T06:24:02.326Z,99885.48
2018-08-23T06:29:23.767Z,99888.95
2018-08-23T06:32:03.036Z,99896.50
2018-08-23T06:34:45.548Z,99889.36
2018-08-23T06:37:17.446Z,99895.34
2018-08-23T06:39:48.730Z,99885.72
2018-08-23T06:42:19.691Z,99876.69
2018-08-23T06:44:54.608Z,99874.00
2018-08-23T06:47:26.858Z,99868.79
2018-08-23T06:49:58.023Z,99871.53
2018-08-23T06:52:40.219Z,99858.22
2018-08-23T06:55:20.833Z,99864.12
2018-08-23T06:57:55.518Z,99865.84
2018-08-23T07:00:27.279Z,99868.70
2018-08-23T07:02:57.935Z,99863.80
2018-08-23T07:05:28.899Z,99865.14
2018-08-23T07:07:59.580Z,99868.72
2018-08-23T07:10:30.550Z,99858.47
2018-08-23T07:13:01.550Z,99855.48
2018-08-23T07:15:32.534Z,99853.91
2018-08-23T07:18:07.293Z,99861.39
2018-08-23T07:20:38.349Z,99858.71
2018-08-23T07:23:30.502Z,99855.29
2018-08-23T07:26:01.499Z,99863.53
2018-08-23T07:31:15.500Z,99866.02
2018-08-23T07:33:51.800Z,99858.27
2018-08-23T07:36:30.433Z,99860.27
2018-08-23T07:39:01.470Z,99854.20
2018-08-23T07:41:32.445Z,99857.19
2018-08-23T07:44:03.574Z,99861.76
2018-08-23T07:46:34.502Z,99864.09
2018-08-23T07:49:05.497Z,99866.00
2018-08-23T07:51:36.474Z,99861.25
2018-08-23T07:54:11.385Z,99856.36
2018-08-23T07:56:42.501Z,99858.27
2018-08-23T07:59:14.313Z,99858.19
2018-08-23T08:01:45.610Z,99862.02
2018-08-23T08:04:16.533Z,99860.56
2018-08-23T08:06:47.489Z,99865.16
2018-08-23T08:09:26.550Z,99867.05
2018-08-23T08:12:01.766Z,99868.87
2018-08-23T08:14:36.724Z,99868.09
2018-08-23T08:17:17.281Z,99861.19
2018-08-23T08:19:52.668Z,99865.25
2018-08-23T08:22:23.558Z,99864.14
2018-08-23T08:25:04.622Z,99870.81
2018-08-23T08:27:35.495Z,99871.12
2018-08-23T08:30:08.477Z,99871.28
2018-08-23T08:32:39.476Z,99870.35
2018-08-23T08:35:17.845Z,99866.42
2018-08-23T08:37:49.987Z,99859.55
2018-08-23T08:40:27.307Z,99862.80
2018-08-23T08:42:58.382Z,99857.41
2018-08-23T08:45:29.504Z,99848.77
2018-08-23T08:48:29.590Z,99855.22
2018-08-23T08:51:25.517Z,99852.27
2018-08-23T08:53:57.309Z,99844.09
2018-08-23T08:56:37.371Z,99842.91
2018-08-23T08:59:08.353Z,99842.83
2018-08-23T09:01:39.458Z,99835.89
2018-08-23T09:04:10.528Z,99835.53
2018-08-23T09:06:45.770Z,99826.11
2018-08-23T09:09:34.239Z,99834.80
2018-08-23T09:12:07.473Z,99828.74
2018-08-23T09:14:39.622Z,99820.56
2018-08-23T09:17:36.527Z,99825.19
2018-08-23T09:20:11.459Z,99823.95
2018-08-23T09:22:47.369Z,99819.48
2018-08-23T09:25:33.387Z,99812.33
2018-08-23T09:28:04.397Z,99822.52
2018-08-23T09:30:35.465Z,99810.73
2018-08-23T09:35:53.510Z,99807.42
2018-08-23T09:38:24.538Z,99803.30
2018-08-23T09:40:55.526Z,99809.50
2018-08-23T09:43:26.485Z,99799.45
2018-08-23T09:45:57.619Z,99814.80
2018-08-23T09:48:28.517Z,99802.23
2018-08-23T09:50:59.549Z,99800.84
2018-08-23T09:53:30.489Z,99788.27
2018-08-23T09:56:01.506Z,99788.38
2018-08-23T09:58:37.534Z,99782.42
2018-08-23T10:01:13.772Z,99778.12
2018-08-23T10:03:49.657Z,99781.66
2018-08-23T10:09:19.664Z,99772.75
2018-08-23T10:12:54.953Z,99774.38
2018-08-23T10:15:31.244Z,99773.84
2018-08-23T10:18:07.220Z,99765.16
2018-08-23T10:20:47.016Z,99769.97
2018-08-23T10:23:24.021Z,99766.39
2018-08-23T10:25:57.413Z,99754.06
2018-08-23T10:28:33.288Z,99751.89
2018-08-23T10:31:04.377Z,99748.02
2018-08-23T10:33:35.400Z,99746.08
2018-08-23T10:36:06.510Z,99747.08
2018-08-23T10:38:38.017Z,99746.48
2018-08-23T10:41:09.301Z,99744.95
2018-08-23T10:43:46.450Z,99742.33
2018-08-23T10:46:17.477Z,99741.49
2018-08-23T10:48:48.481Z,99735.63
2018-08-23T10:51:19.502Z,99748.02
2018-08-23T10:53:50.531Z,99748.91
2018-08-23T10:56:25.289Z,99737.59
2018-08-23T10:58:56.623Z,99743.94
2018-08-23T11:01:28.255Z,99751.65
2018-08-23T11:04:02.350Z,99748.94
2018-08-23T11:06:33.364Z,99752.17
2018-08-23T11:09:09.649Z,99739.02
2018-08-23T11:11:40.612Z,99742.36
2018-08-23T11:14:17.032Z,99732.67
2018-08-23T11:16:53.935Z,99748.97
2018-08-23T11:19:29.720Z,99740.02
2018-08-23T11:22:00.569Z,99735.59
2018-08-23T11:24:31.484Z,99730.38
2018-08-23T11:27:02.500Z,99740.02
2018-08-23T11:29:33.563Z,99728.59
2018-08-23T11:32:04.480Z,99721.89
2018-08-23T11:34:35.549Z,99717.91
2018-08-23T11:37:06.626Z,99721.83
2018-08-23T11:39:37.489Z,99713.69
2018-08-23T11:42:08.480Z,99709.20
2018-08-23T11:44:39.416Z,99696.08
2018-08-23T11:47:10.508Z,99703.00
2018-08-23T11:49:41.475Z,99704.58
2018-08-23T11:52:12.517Z,99692.04
2018-08-23T11:54:43.481Z,99691.36
2018-08-23T11:57:14.513Z,99688.41
2018-08-23T11:59:45.484Z,99685.36
2018-08-23T12:02:16.445Z,99684.28
2018-08-23T12:04:47.504Z,99672.84
2018-08-23T12:07:18.480Z,99682.61
2018-08-23T12:09:49.568Z,99676.54
2018-08-23T12:12:20.519Z,99679.14
2018-08-23T12:14:55.606Z,99675.46
2018-08-23T12:17:26.488Z,99678.09
2018-08-23T12:19:57.466Z,99670.39
2018-08-23T12:22:34.292Z,99666.83
2018-08-23T12:25:04.468Z,99666.36
2018-08-23T12:27:35.685Z,99652.53
2018-08-23T12:30:07.641Z,99649.16
2018-08-23T12:32:38.506Z,99643.77
2018-08-23T12:35:09.477Z,99652.74
2018-08-23T12:37:45.632Z,99645.83
2018-08-23T12:40:21.702Z,99636.70
2018-08-23T12:42:53.312Z,99635.80
2018-08-23T12:45:24.506Z,99628.31
2018-08-23T12:47:55.500Z,99632.11
2018-08-23T12:50:26.493Z,99632.97
2018-08-23T12:52:57.521Z,99620.73
2018-08-23T12:55:28.489Z,99614.69
2018-08-23T12:57:59.504Z,99613.58
2018-08-23T13:00:30.534Z,99619.52
2018-08-23T13:03:01.560Z,99609.22
2018-08-23T13:05:32.460Z,99611.66
2018-08-23T13:08:05.686Z,99603.61
2018-08-23T13:10:37.389Z,99605.67
2018-08-23T13:13:08.495Z,99596.34
2018-08-23T13:15:39.520Z,99594.43
2018-08-23T13:18:10.493Z,99587.67
2018-08-23T13:20:41.557Z,99587.89
2018-08-23T13:23:12.558Z,99589.63
2018-08-23T13:25:48.489Z,99584.28
2018-08-23T13:28:19.523Z,99578.30
2018-08-23T13:30:50.591Z,99578.31
2018-08-23T13:33:21.559Z,99580.27
2018-08-23T13:35:52.489Z,99583.27
2018-08-23T13:38:23.549Z,99580.61
2018-08-23T13:40:54.488Z,99579.98
2018-08-23T13:43:25.508Z,99576.73
2018-08-23T13:45:56.553Z,99568.27
2018-08-23T13:48:27.575Z,99561.19
2018-08-23T13:50:58.533Z,99556.94
2018-08-23T13:56:13.642Z,99562.34
2018-08-23T13:58:44.553Z,99558.02
2018-08-23T14:01:16.397Z,99552.88
2018-08-23T14:03:47.558Z,99548.05
2018-08-23T14:06:18.551Z,99544.56
2018-08-23T14:08:49.501Z,99546.53
2018-08-23T14:11:20.581Z,99539.53
2018-08-23T14:13:51.485Z,99538.78
2018-08-23T14:16:22.503Z,99537.48
2018-08-23T14:18:53.646Z,99533.41
2018-08-23T14:21:24.513Z,99529.77
2018-08-23T14:23:55.493Z,99525.34
2018-08-23T14:26:26.478Z,99519.71
2018-08-23T14:28:57.495Z,99523.88
2018-08-23T14:31:28.502Z,99526.88
2018-08-23T14:33:59.542Z,99517.20
2018-08-23T14:36:30.512Z,99524.33
2018-08-23T14:39:01.508Z,99526.03
2018-08-23T14:41:32.523Z,99515.94
2018-08-23T14:44:03.521Z,99519.81
2018-08-23T14:47:39.423Z,99518.97
2018-08-23T14:50:10.504Z,99512.87
2018-08-23T14:52:41.477Z,99505.32
2018-08-23T14:55:15.813Z,99498.92
2018-08-23T14:57:46.618Z,99503.00
2018-08-23T15:00:17.597Z,99493.51
2018-08-23T15:02:48.638Z,99481.96
2018-08-23T15:05:20.415Z,99480.93
2018-08-23T15:07:51.473Z,99482.77
2018-08-23T15:10:22.535Z,99486.44
2018-08-23T15:12:54.308Z,99478.09
2018-08-23T15:15:30.479Z,99477.27
2018-08-23T15:18:01.918Z,99473.51
2018-08-23T15:20:32.744Z,99472.31
2018-08-23T15:23:03.575Z,99469.95
2018-08-23T15:25:34.515Z,99472.15
2018-08-23T15:28:05.542Z,99470.37
2018-08-23T15:30:36.638Z,99461.98
2018-08-23T15:33:07.604Z,99457.60
2018-08-23T15:35:38.598Z,99450.42
2018-08-23T15:38:09.507Z,99454.91
2018-08-23T15:40:40.498Z,99458.13
2018-08-23T15:43:11.502Z,99452.85
2018-08-23T15:45:42.541Z,99456.22
2018-08-23T15:48:13.512Z,99447.25
2018-08-23T15:50:44.501Z,99449.12
2018-08-23T15:53:17.035Z,99448.97
2018-08-23T15:55:48.440Z,99457.27
2018-08-23T15:58:19.528Z,99460.09
2018-08-23T16:00:50.551Z,99459.86
2018-08-23T16:03:21.509Z,99450.47
2018-08-23T16:05:52.487Z,99455.34
2018-08-23T16:08:23.506Z,99459.58
2018-08-23T16:10:54.481Z,99463.12
2018-08-23T16:13:25.510Z,99451.84
2018-08-23T16:16:01.646Z,99453.28
2018-08-23T16:18:37.601Z,99447.40
2018-08-23T16:21:08.497Z,99449.94
2018-08-23T16:23:40.045Z,99442.40
2018-08-23T16:26:11.339Z,99437.39
2018-08-23T16:28:42.368Z,99438.23
2018-08-23T16:31:13.370Z,99440.77
2018-08-23T16:33:44.356Z,99441.82
2018-08-23T16:36:15.620Z,99432.59
2018-08-23T16:38:46.546Z,99438.91
2018-08-23T16:41:17.607Z,99437.49
2018-08-23T16:43:48.517Z,99442.87
2018-08-23T16:46:19.489Z,99435.79
2018-08-23T16:48:50.668Z,99433.92
2018-08-23T16:51:21.533Z,99429.64
2018-08-23T16:53:53.016Z,99437.34
2018-08-23T16:56:24.240Z,99432.13
2018-08-23T16:58:55.425Z,99428.64
2018-08-23T17:01:26.506Z,99432.48
2018-08-23T17:03:58.563Z,99429.83
2018-08-23T17:06:29.841Z,99428.71
2018-08-23T17:09:00.638Z,99423.56
2018-08-23T17:11:31.486Z,99423.53
2018-08-23T17:14:03.022Z,99415.14
2018-08-23T17:16:39.401Z,99406.72
2018-08-23T17:19:10.498Z,99412.70
2018-08-23T17:21:41.513Z,99410.02
2018-08-23T17:24:12.559Z,99412.16
2018-08-23T17:26:43.485Z,99416.61
2018-08-23T17:30:41.677Z,99414.18
2018-08-23T17:33:12.633Z,99411.69
2018-08-23T17:35:43.548Z,99417.19
2018-08-23T17:38:14.624Z,99416.06
2018-08-23T17:40:45.566Z,99415.55
2018-08-23T17:43:16.533Z,99414.75
2018-08-23T17:45:49.615Z,99408.49
2018-08-23T17:51:09.378Z,99412.03
2018-08-23T17:53:40.457Z,99409.31
2018-08-23T17:56:11.682Z,99418.59
2018-08-23T17:58:42.564Z,99418.33
2018-08-23T18:01:13.554Z,99424.28
2018-08-23T18:03:44.494Z,99420.75
2018-08-23T18:06:15.512Z,99421.55
2018-08-23T18:08:46.506Z,99423.18
2018-08-23T18:11:17.501Z,99420.72
2018-08-23T18:13:48.486Z,99424.00
2018-08-23T18:16:25.245Z,99431.63
2018-08-23T18:18:55.423Z,99431.35
2018-08-23T18:21:26.441Z,99432.97
2018-08-23T18:24:01.390Z,99437.89
2018-08-23T18:26:32.481Z,99437.86
2018-08-23T18:29:03.785Z,99440.85
2018-08-23T18:31:36.421Z,99439.16
2018-08-23T18:34:07.537Z,99442.76
2018-08-23T18:36:38.551Z,99447.59
2018-08-23T18:39:10.750Z,99438.63
2018-08-23T18:41:42.198Z,99447.05
2018-08-23T18:44:13.362Z,99448.16
2018-08-23T18:46:44.517Z,99444.30
2018-08-23T18:49:15.550Z,99444.56
2018-08-23T18:51:46.517Z,99439.92
2018-08-23T18:54:17.585Z,99439.67
2018-08-23T18:56:48.500Z,99446.42
2018-08-23T18:59:19.494Z,99447.25
2018-08-23T19:01:50.516Z,99449.95
2018-08-23T19:04:21.521Z,99459.77
2018-08-23T19:06:52.611Z,99492.69
2018-08-23T19:09:23.510Z,99512.94
2018-08-23T19:11:54.549Z,99506.44
2018-08-23T19:14:25.515Z,99505.16
2018-08-23T19:17:01.816Z,99517.93
2018-08-23T19:19:32.850Z,99523.21
2018-08-23T19:22:03.680Z,99543.34
2018-08-23T19:24:34.565Z,99547.35
2018-08-23T19:27:05.526Z,99561.06
2018-08-23T19:29:36.527Z,99571.59
2018-08-23T19:32:07.554Z,99570.52
2018-08-23T19:34:38.523Z,99559.87
2018-08-23T19:37:09.542Z,99563.70
2018-08-23T19:39:40.692Z,99565.28
2018-08-23T19:42:11.703Z,99544.03
2018-08-23T19:44:47.917Z,99548.53
2018-08-23T19:47:24.186Z,99545.34
2018-08-23T19:49:56.729Z,99546.67
2018-08-23T19:52:27.610Z,99545.36
2018-08-23T19:54:58.510Z,99542.08
2018-08-23T19:57:29.466Z,99536.88
2018-08-23T20:00:00.479Z,99535.31
2018-08-23T20:02:31.510Z,99551.80
2018-08-23T20:05:02.503Z,99549.16
2018-08-23T20:07:33.498Z,99552.86
2018-08-23T20:10:04.574Z,99560.69
2018-08-23T20:12:35.541Z,99576.26
2018-08-23T20:15:06.574Z,99570.56
2018-08-23T20:17:38.443Z,99577.41
2018-08-23T20:20:09.549Z,99583.24
2018-08-23T20:22:40.588Z,99593.81
2018-08-23T20:25:11.591Z,99601.01
2018-08-23T20:27:42.555Z,99598.27
2018-08-23T20:30:13.585Z,99609.16
2018-08-23T20:32:44.519Z,99601.88
2018-08-23T20:35:15.493Z,99610.39
2018-08-23T20:37:46.502Z,99600.22
2018-08-23T20:40:17.478Z,99601.84
2018-08-23T20:42:48.548Z,99606.45
2018-08-23T20:45:19.498Z,99611.44
2018-08-23T20:47:50.556Z,99601.12
2018-08-23T20:50:21.544Z,99600.55
2018-08-23T20:52:52.583Z,99607.64
2018-08-23T20:55:23.617Z,99593.17
2018-08-23T20:57:54.564Z,99599.88
2018-08-23T21:00:25.565Z,99596.89
2018-08-23T21:02:56.686Z,99598.40
2018-08-23T21:05:27.787Z,99594.61
2018-08-23T21:07:59.023Z,99603.17
2018-08-23T21:10:30.579Z,99593.36
2018-08-23T21:13:01.670Z,99602.75
2018-08-23T21:15:35.570Z,99602.66
2018-08-23T21:18:09.623Z,99595.75
2018-08-23T21:20:42.382Z,99602.87
2018-08-23T21:23:13.493Z,99619.13
2018-08-23T21:25:44.522Z,99627.03
2018-08-23T21:28:15.535Z,99635.13
2018-08-23T21:30:46.557Z,99642.16
2018-08-23T21:33:17.866Z,99640.97
2018-08-23T21:35:49.539Z,99629.92
2018-08-23T21:38:20.531Z,99627.41
2018-08-23T21:40:51.486Z,99635.64
2018-08-23T21:43:23.204Z,99630.98
2018-08-23T21:45:54.392Z,99625.52
2018-08-23T21:48:25.474Z,99630.33
2018-08-23T21:50:56.486Z,99625.34
2018-08-23T21:53:27.461Z,99628.73
2018-08-23T21:55:58.558Z,99631.72
2018-08-23T21:58:29.531Z,99634.59
2018-08-23T22:01:08.446Z,99634.19
2018-08-23T22:03:39.782Z,99623.86
2018-08-23T22:06:10.780Z,99624.74
2018-08-23T22:08:41.673Z,99623.70
2018-08-23T22:11:12.604Z,99622.88
2018-08-23T22:13:43.666Z,99615.84
2018-08-23T22:16:14.553Z,99604.06
2018-08-23T22:18:45.493Z,99596.72
2018-08-23T22:21:16.511Z,99594.17
2018-08-23T22:23:47.483Z,99594.77
2018-08-23T22:26:18.522Z,99593.09
2018-08-23T22:31:34.353Z,99588.11
2018-08-23T22:34:05.390Z,99587.71
2018-08-23T22:36:36.381Z,99579.41
2018-08-23T22:39:09.468Z,99588.91
2018-08-23T22:41:40.567Z,99581.94
2018-08-23T22:44:11.503Z,99583.52
2018-08-23T22:46:42.489Z,99588.48
2018-08-23T22:49:13.533Z,99583.29
2018-08-23T22:51:44.523Z,99584.64
2018-08-23T22:54:16.238Z,99584.88
2018-08-23T22:56:47.453Z,99581.42
2018-08-23T22:59:18.477Z,99585.93
2018-08-23T23:01:49.624Z,99588.31
2018-08-23T23:04:25.803Z,99586.73
2018-08-23T23:06:57.434Z,99578.44
2018-08-23T23:09:28.486Z,99572.58
2018-08-23T23:11:59.508Z,99566.53
2018-08-23T23:14:30.617Z,99559.23
2018-08-23T23:19:52.513Z,99549.16
2018-08-23T23:22:23.599Z,99551.61
2018-08-23T23:24:59.605Z,99551.29
2018-08-23T23:27:30.801Z,99545.95
2018-08-23T23:30:01.717Z,99547.16
2018-08-23T23:32:32.568Z,99548.77
2018-08-23T23:35:03.509Z,99550.70
2018-08-23T23:37:34.496Z,99549.88
2018-08-23T23:40:05.452Z,99552.93
2018-08-23T23:42:37.182Z,99555.06
2018-08-23T23:45:09.425Z,99562.98
2018-08-23T23:47:40.486Z,99560.38
2018-08-23T23:50:11.492Z,99551.98
2018-08-23T23:52:42.509Z,99554.39
2018-08-23T23:55:13.518Z,99558.56
2018-08-23T23:57:44.461Z,99563.81
